Plainview, TX (79072)

4:57 AM CST on December 19, 2014 (GMT -0600)
Oasis - 79072 | Change Station
CLOSE
Current Station
Personal Weather Station
Location: Plainview, TX
Elevation: 3386 ft
Nearby Weather Stations

Elev 3386 ft 34.19 °N, 101.77 °W | Updated 14 minutes ago

Overcast
Overcast
36.3 °F
Feels Like 36 °F
N
1.7
Wind Variable Wind from SSE

Today
High -- | Low -- °F
--% Chance of Precip.
Yesterday
High -- | Low -- °F
Precip. -- in
7:47 AM 5:40 PM
Waning Crescent, 8% visible
Pressure 30.10 in
Visibility 7.0 miles
Clouds Mostly Cloudy 600 ft
Overcast 1000 ft
Windchill 36 °F
Dew Point 36 °F
Humidity 97%
Rainfall 0.05 in
Snow Depth Not available.
UV 0 out of 12
Pollen 8.40 out of 12
Air Quality Not available.
Flu Activity Not available.
METAR KPVW 191035Z AUTO 10006KT 7SM BKN006 OVC010 03/02 A3010 RMK AO2 T00300023

More Conditions Fewer Conditions

Pressure 30.10 in
Visibility 7.0 miles
Clouds Mostly Cloudy 600 ft
Overcast 1000 ft
Windchill 36 °F
Dew Point 36 °F
Humidity 97%
Rainfall 0.05 in
Snow Depth Not available.
UV 0 out of 12
Pollen 8.40 out of 12
Air Quality Not available.
Flu Activity Not available.
METAR KPVW 191035Z AUTO 10006KT 7SM BKN006 OVC010 03/02 A3010 RMK AO2 T00300023

More Conditions Fewer Conditions

Nowcast | as of 3:53 am CST on December 19, 2014

Through 530 am...scattered light rain showers and some drizzle will overspread much of the rolling plains and southeast Panhandle... whereas areas farther west will see this light precipitation gradually end from west to east. Locations roughly east of a line from Tulia to Petersburg to Lake Alan Henry can expect anywhere from just a trace to several hundredths of an inch of rain through daybreak.

×

10-Day Weather Forecast

Almanac

Astronomy

Dec. 19, 2014 Rise Set
Actual Time
Civil Twilight
Nautical Twilight
Astronomical Twilight
Moon
Length of Visible Light
Length of Day
Tomorrow will be .
, % of the Moon is Illuminated

Today's Extremes

State Highs State Lows

Community

WunderPhotos

Upload Photos

1,778,966 photos uploaded!

WunderBlogs® & News

Nearby

Air Quality

  Air Quality AQ Index Pollutant
Not available.

Snow Depth

Station Depth Elevation

Earthquake Activity

City Distance Mag. Time & Date
Minimum magnitude displayed is 2.5.

Coastal Water Temperatures

Place Temperature

Nearby Weather Stations